createdAt,value
2022-09-14T00:00:07.980Z,99.99
2022-09-14T00:01:24.149Z,99.99
2022-09-14T00:02:08.094Z,99.99
2022-09-14T00:03:08.200Z,99.99
2022-09-14T00:04:07.982Z,99.99
2022-09-14T00:05:08.034Z,99.99
2022-09-14T00:06:07.984Z,99.99
2022-09-14T00:07:07.985Z,99.99
2022-09-14T00:08:07.979Z,99.99
2022-09-14T00:09:07.986Z,99.99
2022-09-14T00:10:07.985Z,99.99
2022-09-14T00:11:07.984Z,99.99
2022-09-14T00:12:07.982Z,99.99
2022-09-14T00:13:07.984Z,99.99
2022-09-14T00:14:07.982Z,99.99
2022-09-14T00:15:07.984Z,99.99
2022-09-14T00:16:08.010Z,99.99
2022-09-14T00:17:08.031Z,99.99
2022-09-14T00:18:07.987Z,99.99
2022-09-14T00:19:08.002Z,99.99
2022-09-14T00:20:07.991Z,99.99
2022-09-14T00:21:07.984Z,99.99
2022-09-14T00:22:07.986Z,99.99
2022-09-14T00:23:07.984Z,99.99
2022-09-14T00:24:07.989Z,99.99
2022-09-14T00:25:07.995Z,99.99
2022-09-14T00:26:07.988Z,99.99
2022-09-14T00:27:07.991Z,99.99
2022-09-14T00:28:07.987Z,99.99
2022-09-14T00:29:07.987Z,99.99
2022-09-14T00:30:07.986Z,99.99
2022-09-14T00:31:07.983Z,99.99
2022-09-14T00:32:08.071Z,99.99
2022-09-14T00:33:07.992Z,99.99
2022-09-14T00:34:07.988Z,99.99
2022-09-14T00:35:08.009Z,99.99
2022-09-14T00:36:07.989Z,99.99
2022-09-14T00:37:07.989Z,99.99
2022-09-14T00:38:07.988Z,99.99
2022-09-14T00:39:07.983Z,99.99
2022-09-14T00:40:08.038Z,99.99
2022-09-14T00:41:07.987Z,99.99
2022-09-14T00:42:07.987Z,99.99
2022-09-14T00:43:07.995Z,99.99
2022-09-14T00:44:07.989Z,99.99
2022-09-14T00:45:07.987Z,99.99
2022-09-14T00:46:08.037Z,99.99
2022-09-14T00:47:07.992Z,99.99
2022-09-14T00:48:07.986Z,99.99
2022-09-14T00:49:07.991Z,99.99
2022-09-14T00:50:07.991Z,99.99
2022-09-14T00:51:08.006Z,99.99
2022-09-14T00:52:07.992Z,99.99
2022-09-14T00:53:07.990Z,99.99
2022-09-14T00:54:07.987Z,99.99
2022-09-14T00:55:07.987Z,99.99
2022-09-14T00:56:07.987Z,99.99
2022-09-14T00:57:07.996Z,99.99
2022-09-14T00:58:07.989Z,99.99
2022-09-14T00:59:07.990Z,99.99
2022-09-14T01:00:07.989Z,99.99
2022-09-14T01:01:08.059Z,99.99
2022-09-14T01:02:08.050Z,99.99
2022-09-14T01:03:07.991Z,99.99
2022-09-14T01:04:07.987Z,99.99
2022-09-14T01:05:07.989Z,99.99
2022-09-14T01:06:07.988Z,99.99
2022-09-14T01:07:08.100Z,99.99
2022-09-14T01:08:07.989Z,99.99
2022-09-14T01:09:07.989Z,99.99
2022-09-14T01:10:07.997Z,99.99
2022-09-14T01:11:07.992Z,99.99
2022-09-14T01:12:07.993Z,99.99
2022-09-14T01:13:07.989Z,99.99
2022-09-14T01:14:07.990Z,99.99
2022-09-14T01:15:07.991Z,99.99
2022-09-14T01:16:08.057Z,99.99
2022-09-14T01:17:07.991Z,99.99
2022-09-14T01:18:07.989Z,99.99
2022-09-14T01:19:07.988Z,99.99
2022-09-14T01:20:07.991Z,99.99
2022-09-14T01:21:07.993Z,99.99
2022-09-14T01:22:07.988Z,99.99
2022-09-14T01:23:08.011Z,99.99
2022-09-14T01:24:07.988Z,99.99
2022-09-14T01:25:07.990Z,99.99
2022-09-14T01:26:07.987Z,99.99
2022-09-14T01:27:07.987Z,99.99
2022-09-14T01:28:07.993Z,99.99
2022-09-14T01:29:07.993Z,99.99
2022-09-14T01:30:07.991Z,99.99
2022-09-14T01:31:08.031Z,99.99
2022-09-14T01:32:07.996Z,99.99
2022-09-14T01:33:07.992Z,99.99
2022-09-14T01:34:07.991Z,99.99
2022-09-14T01:35:07.989Z,99.99
2022-09-14T01:36:07.992Z,99.99
2022-09-14T01:37:08.007Z,99.99
2022-09-14T01:38:07.997Z,99.99
2022-09-14T01:39:08.014Z,99.99
2022-09-14T01:40:08.080Z,99.99
2022-09-14T01:41:07.991Z,99.99
2022-09-14T01:42:07.991Z,99.99
2022-09-14T01:43:07.989Z,99.99
2022-09-14T01:44:07.995Z,99.99
2022-09-14T01:45:07.993Z,99.99
2022-09-14T01:46:08.052Z,99.99
2022-09-14T01:47:07.992Z,99.99
2022-09-14T01:48:07.993Z,99.99
2022-09-14T01:49:07.994Z,99.99
2022-09-14T01:50:07.992Z,99.99
2022-09-14T01:51:07.993Z,99.99
2022-09-14T01:52:07.988Z,99.99
2022-09-14T01:53:07.992Z,99.99
2022-09-14T01:54:07.988Z,99.99
2022-09-14T01:55:08.100Z,99.99
2022-09-14T01:56:08.011Z,99.99
2022-09-14T01:57:07.992Z,99.99
2022-09-14T01:58:07.990Z,99.99
2022-09-14T01:59:07.993Z,99.99
2022-09-14T02:00:07.991Z,99.99
2022-09-14T02:01:08.135Z,99.99
2022-09-14T02:02:08.086Z,99.99
2022-09-14T02:03:07.993Z,99.99
2022-09-14T02:04:07.989Z,99.99
2022-09-14T02:05:07.993Z,99.99
2022-09-14T02:06:07.997Z,99.99
2022-09-14T02:07:07.991Z,99.99
2022-09-14T02:08:07.989Z,99.99
2022-09-14T02:09:07.994Z,99.99
2022-09-14T02:10:08.043Z,99.99
2022-09-14T02:11:08.023Z,99.99
2022-09-14T02:12:07.989Z,99.99
2022-09-14T02:13:07.991Z,99.99
2022-09-14T02:14:07.992Z,99.99
2022-09-14T02:15:07.996Z,99.99
2022-09-14T02:16:08.093Z,99.99
2022-09-14T02:17:07.993Z,99.99
2022-09-14T02:18:07.992Z,99.99
2022-09-14T02:19:07.989Z,99.99
2022-09-14T02:20:07.992Z,99.99
2022-09-14T02:21:07.994Z,99.99
2022-09-14T02:22:07.993Z,99.99
2022-09-14T02:23:07.990Z,99.99
2022-09-14T02:24:07.998Z,99.99
2022-09-14T02:25:07.991Z,99.99
2022-09-14T02:26:07.988Z,99.99
2022-09-14T02:27:08.014Z,99.99
2022-09-14T02:28:07.992Z,99.99
2022-09-14T02:29:07.993Z,99.99
2022-09-14T02:30:07.993Z,99.99
2022-09-14T02:31:08.127Z,99.99
2022-09-14T02:32:07.990Z,99.99
2022-09-14T02:33:07.990Z,99.99
2022-09-14T02:34:07.992Z,99.99
2022-09-14T02:35:07.989Z,99.99
2022-09-14T02:36:07.992Z,99.99
2022-09-14T02:37:07.987Z,99.99
2022-09-14T02:38:07.988Z,99.99
2022-09-14T02:39:07.996Z,99.99
2022-09-14T02:40:08.010Z,99.99
2022-09-14T02:41:07.989Z,99.99
2022-09-14T02:42:07.996Z,99.99
2022-09-14T02:43:08.008Z,99.99
2022-09-14T02:44:07.990Z,99.99
2022-09-14T02:45:07.985Z,99.99
2022-09-14T02:46:07.988Z,99.99
2022-09-14T02:47:08.053Z,99.99
2022-09-14T02:48:07.987Z,99.99
2022-09-14T02:49:07.990Z,99.99
2022-09-14T02:50:07.991Z,99.99
2022-09-14T02:51:07.990Z,99.99
2022-09-14T02:52:07.989Z,99.99
2022-09-14T02:53:07.991Z,99.99
2022-09-14T02:54:07.994Z,99.99
2022-09-14T02:55:07.999Z,99.99
2022-09-14T02:56:07.990Z,99.99
2022-09-14T02:57:07.986Z,99.99
2022-09-14T02:58:07.990Z,99.99
2022-09-14T02:59:08.008Z,99.99
2022-09-14T03:00:07.983Z,99.99
2022-09-14T03:01:08.090Z,99.99
2022-09-14T03:02:08.038Z,99.99
2022-09-14T03:03:07.989Z,99.99
2022-09-14T03:04:07.993Z,99.99
2022-09-14T03:05:07.993Z,99.99
2022-09-14T03:06:07.991Z,99.99
2022-09-14T03:07:07.987Z,99.99
2022-09-14T03:08:07.989Z,99.99
2022-09-14T03:09:07.991Z,99.99
2022-09-14T03:10:07.988Z,99.99
2022-09-14T03:11:07.989Z,99.99
2022-09-14T03:12:07.986Z,99.99
2022-09-14T03:13:07.990Z,99.99
2022-09-14T03:14:07.987Z,99.99
2022-09-14T03:15:08.009Z,99.99
2022-09-14T03:16:08.076Z,99.99
2022-09-14T03:17:07.989Z,99.99
2022-09-14T03:18:12.288Z,99.99
2022-09-14T03:19:07.989Z,99.99
2022-09-14T03:20:07.988Z,99.99
2022-09-14T03:21:07.989Z,99.99
2022-09-14T03:22:08.003Z,99.99
2022-09-14T03:23:07.990Z,99.99
2022-09-14T03:24:07.987Z,99.99
2022-09-14T03:25:07.986Z,99.99
2022-09-14T03:26:07.986Z,99.99
2022-09-14T03:27:07.996Z,99.99
2022-09-14T03:28:07.988Z,99.99
2022-09-14T03:29:07.993Z,99.99
2022-09-14T03:30:07.989Z,99.99
2022-09-14T03:31:08.091Z,99.99
2022-09-14T03:32:07.983Z,99.99
2022-09-14T03:33:07.990Z,99.99
2022-09-14T03:34:07.986Z,99.99
2022-09-14T03:35:07.989Z,99.99
2022-09-14T03:36:07.990Z,99.99
2022-09-14T03:37:07.987Z,99.99
2022-09-14T03:38:07.982Z,99.99
2022-09-14T03:39:07.976Z,99.99
2022-09-14T03:40:08.056Z,99.99
2022-09-14T03:41:07.978Z,99.99
2022-09-14T03:42:07.980Z,99.99
2022-09-14T03:43:07.978Z,99.99
2022-09-14T03:44:07.981Z,99.99
2022-09-14T03:45:07.978Z,99.99
2022-09-14T03:46:08.051Z,99.99
2022-09-14T03:47:08.068Z,99.99
2022-09-14T03:48:07.979Z,99.99
2022-09-14T03:49:07.977Z,99.99
2022-09-14T03:50:07.979Z,99.99
2022-09-14T03:51:07.984Z,99.99
2022-09-14T03:52:07.976Z,99.99
2022-09-14T03:53:07.979Z,99.99
2022-09-14T03:54:07.979Z,99.99
2022-09-14T03:55:07.983Z,99.99
2022-09-14T03:56:07.979Z,99.99
2022-09-14T03:57:07.983Z,99.99
2022-09-14T03:58:07.977Z,99.99
2022-09-14T03:59:07.974Z,99.99
2022-09-14T04:00:07.983Z,99.99
2022-09-14T04:01:07.987Z,99.99
2022-09-14T04:02:08.076Z,99.99
2022-09-14T04:03:08.070Z,99.99
2022-09-14T04:04:07.976Z,99.99
2022-09-14T04:05:07.979Z,99.99
2022-09-14T04:06:07.979Z,99.99
2022-09-14T04:07:07.978Z,99.99
2022-09-14T04:08:07.980Z,99.99
2022-09-14T04:09:07.975Z,99.99
2022-09-14T04:10:07.980Z,99.99
2022-09-14T04:11:07.978Z,99.99
2022-09-14T04:12:07.978Z,99.99
2022-09-14T04:13:07.976Z,99.99
2022-09-14T04:14:07.975Z,99.99
2022-09-14T04:15:07.977Z,99.99
2022-09-14T04:16:08.034Z,99.99
2022-09-14T04:17:07.974Z,99.99
2022-09-14T04:18:07.976Z,99.99
2022-09-14T04:19:08.076Z,99.99
2022-09-14T04:20:07.976Z,99.99
2022-09-14T04:21:08.779Z,99.99
2022-09-14T04:22:07.974Z,99.99
2022-09-14T04:23:07.977Z,99.99
2022-09-14T04:24:15.009Z,99.99
2022-09-14T04:25:07.972Z,99.99
2022-09-14T04:26:07.976Z,99.99
2022-09-14T04:27:07.975Z,99.99
2022-09-14T04:28:20.076Z,99.99
2022-09-14T04:29:07.973Z,99.99
2022-09-14T04:30:07.976Z,99.99
2022-09-14T04:31:08.006Z,99.99
2022-09-14T04:32:08.028Z,99.99
2022-09-14T04:33:07.977Z,99.99
2022-09-14T04:34:07.974Z,99.99
2022-09-14T04:35:07.994Z,99.99
2022-09-14T04:36:07.979Z,99.99
2022-09-14T04:37:07.974Z,99.99
2022-09-14T04:38:07.978Z,99.99
2022-09-14T04:39:07.972Z,99.99
2022-09-14T04:40:08.059Z,99.99
2022-09-14T04:41:07.971Z,99.99
2022-09-14T04:42:07.971Z,99.99
2022-09-14T04:43:07.968Z,99.99
2022-09-14T04:44:07.973Z,99.99
2022-09-14T04:45:07.971Z,99.99
2022-09-14T04:46:08.034Z,99.99
2022-09-14T04:47:07.970Z,99.99
2022-09-14T04:48:07.973Z,99.99
2022-09-14T04:49:07.975Z,99.99
2022-09-14T04:50:07.977Z,99.99
2022-09-14T04:51:07.994Z,99.99
2022-09-14T04:52:07.977Z,99.99
2022-09-14T04:53:07.972Z,99.99
2022-09-14T04:54:07.975Z,99.99
2022-09-14T04:55:07.974Z,99.99
2022-09-14T04:56:07.978Z,99.99
2022-09-14T04:57:07.968Z,99.99
2022-09-14T04:58:07.974Z,99.99
2022-09-14T04:59:07.977Z,99.99
2022-09-14T05:00:07.970Z,99.99
2022-09-14T05:01:07.998Z,99.99
2022-09-14T05:02:08.032Z,99.99
2022-09-14T05:03:07.989Z,99.99
2022-09-14T05:04:07.967Z,99.99
2022-09-14T05:05:07.970Z,99.99
2022-09-14T05:06:07.974Z,99.99
2022-09-14T05:07:07.997Z,99.99
2022-09-14T05:08:07.971Z,99.99
2022-09-14T05:09:07.968Z,99.99
2022-09-14T05:10:07.978Z,99.99
2022-09-14T05:11:07.965Z,99.99
2022-09-14T05:12:07.973Z,99.99
2022-09-14T05:13:07.968Z,99.99
2022-09-14T05:14:07.976Z,99.99
2022-09-14T05:15:07.966Z,99.99
2022-09-14T05:16:08.017Z,99.99
2022-09-14T05:17:07.965Z,99.99
2022-09-14T05:18:07.968Z,99.99
2022-09-14T05:19:07.970Z,99.99
2022-09-14T05:20:07.967Z,99.99
2022-09-14T05:21:08.640Z,99.99
2022-09-14T05:22:07.967Z,99.99
2022-09-14T05:23:07.997Z,99.99
2022-09-14T05:24:07.966Z,99.99
2022-09-14T05:25:07.965Z,99.99
2022-09-14T05:26:07.967Z,99.99
2022-09-14T05:27:07.966Z,99.99
2022-09-14T05:28:07.971Z,99.99
2022-09-14T05:29:07.973Z,99.99
2022-09-14T05:30:07.970Z,99.99
2022-09-14T05:31:08.039Z,99.99
2022-09-14T05:32:08.016Z,99.99
2022-09-14T05:33:07.968Z,99.99
2022-09-14T05:34:07.968Z,99.99
2022-09-14T05:35:07.968Z,99.99
2022-09-14T05:36:07.966Z,99.99
2022-09-14T05:37:07.962Z,99.99
2022-09-14T05:38:07.965Z,99.99
2022-09-14T05:39:07.988Z,99.99
2022-09-14T05:40:08.090Z,99.99
2022-09-14T05:41:07.971Z,99.99
2022-09-14T05:42:07.966Z,99.99
2022-09-14T05:43:07.961Z,99.99
2022-09-14T05:44:07.966Z,99.99
2022-09-14T05:45:07.968Z,99.99
2022-09-14T05:46:08.094Z,99.99
2022-09-14T05:47:07.965Z,99.99
2022-09-14T05:48:07.968Z,99.99
2022-09-14T05:49:07.964Z,99.99
2022-09-14T05:50:07.966Z,99.99
2022-09-14T05:51:07.965Z,99.99
2022-09-14T05:52:07.967Z,99.99
2022-09-14T05:53:07.968Z,99.99
2022-09-14T05:54:07.966Z,99.99
2022-09-14T05:55:07.980Z,99.99
2022-09-14T05:56:07.964Z,99.99
2022-09-14T05:57:07.964Z,99.99
2022-09-14T05:58:07.964Z,99.99
2022-09-14T05:59:07.965Z,99.99
2022-09-14T06:00:07.970Z,99.99
2022-09-14T06:01:07.964Z,99.99
2022-09-14T06:02:08.037Z,99.99
2022-09-14T06:03:07.962Z,99.99
2022-09-14T06:04:07.970Z,99.99
2022-09-14T06:05:08.025Z,99.99
2022-09-14T06:06:07.965Z,99.99
2022-09-14T06:07:18.436Z,99.99
2022-09-14T06:08:07.965Z,99.99
2022-09-14T06:09:07.965Z,99.99
2022-09-14T06:10:07.963Z,99.99
2022-09-14T06:11:08.073Z,99.99
2022-09-14T06:12:07.966Z,99.99
2022-09-14T06:13:07.965Z,99.99
2022-09-14T06:14:07.967Z,99.99
2022-09-14T06:15:07.969Z,99.99
2022-09-14T06:16:07.964Z,99.99
2022-09-14T06:17:07.963Z,99.99
2022-09-14T06:18:07.963Z,99.99
2022-09-14T06:19:07.968Z,99.99
2022-09-14T06:20:07.965Z,99.99
2022-09-14T06:21:07.962Z,99.99
2022-09-14T06:22:07.968Z,99.99
2022-09-14T06:23:07.972Z,99.99
2022-09-14T06:24:07.964Z,99.99
2022-09-14T06:25:07.967Z,99.99
2022-09-14T06:26:07.963Z,99.99
2022-09-14T06:27:07.981Z,99.99
2022-09-14T06:28:07.967Z,99.99
2022-09-14T06:29:08.029Z,99.99
2022-09-14T06:30:07.969Z,99.99
2022-09-14T06:31:07.960Z,99.99
2022-09-14T06:32:08.016Z,99.99
2022-09-14T06:33:07.962Z,99.99
2022-09-14T06:34:07.967Z,99.99
2022-09-14T06:35:12.217Z,99.99
2022-09-14T06:36:07.962Z,99.99
2022-09-14T06:37:07.970Z,99.99
2022-09-14T06:38:07.963Z,99.99
2022-09-14T06:39:07.964Z,99.99
2022-09-14T06:40:08.007Z,99.99
2022-09-14T06:41:07.963Z,99.99
2022-09-14T06:42:07.959Z,99.99
2022-09-14T06:43:08.026Z,99.99
2022-09-14T06:44:07.969Z,99.99
2022-09-14T06:45:07.964Z,99.99
2022-09-14T06:46:07.970Z,99.99
2022-09-14T06:47:07.965Z,99.99
2022-09-14T06:48:07.967Z,99.99
2022-09-14T06:49:07.964Z,99.99
2022-09-14T06:50:07.967Z,99.99
2022-09-14T06:51:07.962Z,99.99
2022-09-14T06:52:07.963Z,99.99
2022-09-14T06:53:07.964Z,99.99
2022-09-14T06:54:07.966Z,99.99
2022-09-14T06:55:07.964Z,99.99
2022-09-14T06:56:07.967Z,99.99
2022-09-14T06:57:07.972Z,99.99
2022-09-14T06:58:07.965Z,99.08
2022-09-14T06:59:07.995Z,97.94
2022-09-14T07:00:07.972Z,98.33
2022-09-14T07:01:07.967Z,98.88
2022-09-14T07:02:07.972Z,98.79
2022-09-14T07:03:08.055Z,98.49
2022-09-14T07:04:07.971Z,98.33
2022-09-14T07:05:07.967Z,97.74
2022-09-14T07:06:07.966Z,97.24
2022-09-14T07:07:07.966Z,96.90
2022-09-14T07:08:11.931Z,96.10
2022-09-14T07:09:07.970Z,96.55
2022-09-14T07:10:07.975Z,96.00
2022-09-14T07:11:07.976Z,95.95
2022-09-14T07:12:07.972Z,95.95
2022-09-14T07:13:07.975Z,94.86
2022-09-14T07:14:07.974Z,92.87
2022-09-14T07:15:07.990Z,93.47
2022-09-14T07:16:07.977Z,94.26
2022-09-14T07:17:07.976Z,94.71
2022-09-14T07:18:07.986Z,95.45
2022-09-14T07:19:07.974Z,95.40
2022-09-14T07:20:07.981Z,95.00
2022-09-14T07:21:07.977Z,96.55
2022-09-14T07:22:07.979Z,96.94
2022-09-14T07:23:07.983Z,97.44
2022-09-14T07:24:07.985Z,96.84
2022-09-14T07:25:07.982Z,96.64
2022-09-14T07:26:07.986Z,97.69
2022-09-14T07:27:07.983Z,97.69
2022-09-14T07:28:07.997Z,97.49
2022-09-14T07:29:07.982Z,98.44
2022-09-14T07:30:07.990Z,97.24
2022-09-14T07:31:08.050Z,97.53
2022-09-14T07:32:07.993Z,97.49
2022-09-14T07:33:07.997Z,97.89
2022-09-14T07:34:07.988Z,96.64
2022-09-14T07:35:07.987Z,96.70
2022-09-14T07:36:07.990Z,94.95
2022-09-14T07:37:07.999Z,95.21
2022-09-14T07:38:07.994Z,93.07
2022-09-14T07:39:07.995Z,93.32
2022-09-14T07:40:08.112Z,93.32
2022-09-14T07:41:07.992Z,92.38
2022-09-14T07:42:08.003Z,91.34
2022-09-14T07:43:07.995Z,91.04
2022-09-14T07:44:08.006Z,91.74
2022-09-14T07:45:07.996Z,91.84
2022-09-14T07:46:08.055Z,91.94
2022-09-14T07:47:08.028Z,90.64
2022-09-14T07:48:08.006Z,91.25
2022-09-14T07:49:08.001Z,90.07
2022-09-14T07:50:08.001Z,89.89
2022-09-14T07:51:08.009Z,87.82
2022-09-14T07:52:08.008Z,86.29
2022-09-14T07:53:08.007Z,86.40
2022-09-14T07:54:08.009Z,83.48
2022-09-14T07:55:08.013Z,82.26
2022-09-14T07:56:08.007Z,82.91
2022-09-14T07:57:08.015Z,82.64
2022-09-14T07:58:08.015Z,81.67
2022-09-14T07:59:33.384Z,78.92
2022-09-14T08:00:08.019Z,78.25
2022-09-14T08:01:08.099Z,77.08
2022-09-14T08:02:08.133Z,79.08
2022-09-14T08:03:08.124Z,77.87
2022-09-14T08:04:08.028Z,78.50
2022-09-14T08:05:08.030Z,79.73
2022-09-14T08:06:08.033Z,81.05
2022-09-14T08:07:08.031Z,80.99
2022-09-14T08:08:08.034Z,82.91
2022-09-14T08:09:08.031Z,82.16
2022-09-14T08:10:08.030Z,80.62
2022-09-14T08:11:08.048Z,82.73
2022-09-14T08:12:08.040Z,82.78
2022-09-14T08:13:08.043Z,82.32
2022-09-14T08:14:08.043Z,84.50
2022-09-14T08:15:08.048Z,84.40
2022-09-14T08:16:08.090Z,83.71
2022-09-14T08:17:08.050Z,84.00
2022-09-14T08:18:08.053Z,83.76
2022-09-14T08:19:08.080Z,82.73
2022-09-14T08:20:08.059Z,81.37
2022-09-14T08:21:08.062Z,80.50
2022-09-14T08:22:08.063Z,80.66
2022-09-14T08:23:08.062Z,79.83
2022-09-14T08:24:08.067Z,79.59
2022-09-14T08:25:08.069Z,79.99
2022-09-14T08:26:08.073Z,78.23
2022-09-14T08:27:09.232Z,77.11
2022-09-14T08:28:08.076Z,77.37
2022-09-14T08:29:08.088Z,76.05
2022-09-14T08:30:08.088Z,75.03
2022-09-14T08:31:08.089Z,75.48
2022-09-14T08:32:08.169Z,73.09
2022-09-14T08:33:08.094Z,71.87
2022-09-14T08:34:08.098Z,71.54
2022-09-14T08:35:08.127Z,71.41
2022-09-14T08:36:08.106Z,71.54
2022-09-14T08:37:08.108Z,73.67
2022-09-14T08:38:08.122Z,71.54
2022-09-14T08:39:08.121Z,71.38
2022-09-14T08:40:08.183Z,71.77
2022-09-14T08:41:08.131Z,71.61
2022-09-14T08:42:08.126Z,72.96
2022-09-14T08:43:08.135Z,71.31
2022-09-14T08:44:08.140Z,72.73
2022-09-14T08:45:09.889Z,71.48
2022-09-14T08:46:08.207Z,74.34
2022-09-14T08:47:08.156Z,75.46
2022-09-14T08:48:08.162Z,73.62
2022-09-14T08:49:08.167Z,73.75
2022-09-14T08:50:08.172Z,76.52
2022-09-14T08:51:08.287Z,73.86
2022-09-14T08:52:08.187Z,74.90
2022-09-14T08:53:08.187Z,73.62
2022-09-14T08:54:08.200Z,75.20
2022-09-14T08:55:08.204Z,75.83
2022-09-14T08:56:08.204Z,75.70
2022-09-14T08:57:08.215Z,76.62
2022-09-14T08:58:08.217Z,73.92
2022-09-14T08:59:08.212Z,74.25
2022-09-14T09:00:08.225Z,77.17
2022-09-14T09:01:08.295Z,75.00
2022-09-14T09:02:08.251Z,73.46
2022-09-14T09:03:08.258Z,73.27
2022-09-14T09:04:08.292Z,74.98
2022-09-14T09:05:08.260Z,75.96
2022-09-14T09:06:09.468Z,75.60
2022-09-14T09:07:08.264Z,76.82
2022-09-14T09:08:08.328Z,76.67
2022-09-14T09:09:08.288Z,77.16
2022-09-14T09:10:08.285Z,78.09
2022-09-14T09:11:08.291Z,76.74
2022-09-14T09:12:08.290Z,79.35
2022-09-14T09:13:08.306Z,78.10
2022-09-14T09:14:08.301Z,79.49
2022-09-14T09:15:08.314Z,78.83
2022-09-14T09:16:08.423Z,77.12
2022-09-14T09:17:08.321Z,78.45
2022-09-14T09:18:08.333Z,81.03
2022-09-14T09:19:08.334Z,80.14
2022-09-14T09:20:08.337Z,80.47
2022-09-14T09:21:08.348Z,81.56
2022-09-14T09:22:08.351Z,80.87
2022-09-14T09:23:08.352Z,80.77
2022-09-14T09:24:08.386Z,78.59
2022-09-14T09:25:08.369Z,78.53
2022-09-14T09:26:08.373Z,79.62
2022-09-14T09:27:08.377Z,79.02
2022-09-14T09:28:08.387Z,81.45
2022-09-14T09:29:08.385Z,81.15
2022-09-14T09:30:08.388Z,80.94
2022-09-14T09:31:13.965Z,80.29
2022-09-14T09:32:08.458Z,80.88
2022-09-14T09:33:08.403Z,81.48
2022-09-14T09:34:08.406Z,82.57
2022-09-14T09:35:08.410Z,81.18
2022-09-14T09:36:08.423Z,81.29
2022-09-14T09:37:08.424Z,81.09
2022-09-14T09:38:08.463Z,81.45
2022-09-14T09:39:08.432Z,81.64
2022-09-14T09:40:08.621Z,80.85
2022-09-14T09:41:08.435Z,81.34
2022-09-14T09:42:08.437Z,78.53
2022-09-14T09:43:08.444Z,78.82
2022-09-14T09:44:08.450Z,80.31
2022-09-14T09:45:08.452Z,78.99
2022-09-14T09:46:08.542Z,77.10
2022-09-14T09:47:08.535Z,79.74
2022-09-14T09:48:08.468Z,76.59
2022-09-14T09:49:08.469Z,76.45
2022-09-14T09:50:08.468Z,76.81
2022-09-14T09:51:08.480Z,76.87
2022-09-14T09:52:08.481Z,73.28
2022-09-14T09:53:08.488Z,73.64
2022-09-14T09:54:08.493Z,75.28
2022-09-14T09:55:08.499Z,71.98
2022-09-14T09:56:08.526Z,73.33
2022-09-14T09:57:08.505Z,72.97
2022-09-14T09:58:08.512Z,72.61
2022-09-14T09:59:08.512Z,73.47
2022-09-14T10:00:08.523Z,74.60
2022-09-14T10:01:12.245Z,74.27
2022-09-14T10:02:08.616Z,75.70
2022-09-14T10:03:08.536Z,77.58
2022-09-14T10:04:08.550Z,77.03
2022-09-14T10:05:08.549Z,77.72
2022-09-14T10:06:08.551Z,76.92
2022-09-14T10:07:08.558Z,77.06
2022-09-14T10:08:11.537Z,76.67
2022-09-14T10:09:08.570Z,78.05
2022-09-14T10:10:08.573Z,77.76
2022-09-14T10:11:08.574Z,78.65
2022-09-14T10:12:08.606Z,78.19
2022-09-14T10:13:08.590Z,76.92
2022-09-14T10:14:08.596Z,76.10
2022-09-14T10:15:08.605Z,76.75
2022-09-14T10:16:08.680Z,77.34
2022-09-14T10:17:08.610Z,76.49
2022-09-14T10:18:08.621Z,76.33
2022-09-14T10:19:08.623Z,74.78
2022-09-14T10:20:08.629Z,75.12
2022-09-14T10:21:08.634Z,77.04
2022-09-14T10:22:08.636Z,76.44
2022-09-14T10:23:08.648Z,77.27
2022-09-14T10:24:08.641Z,76.91
2022-09-14T10:25:08.649Z,78.20
2022-09-14T10:26:08.658Z,77.75
2022-09-14T10:27:08.667Z,78.70
2022-09-14T10:28:08.682Z,78.50
2022-09-14T10:29:08.669Z,79.36
2022-09-14T10:30:08.675Z,80.71
2022-09-14T10:31:08.773Z,78.99
2022-09-14T10:32:08.689Z,78.59
2022-09-14T10:33:08.689Z,77.66
2022-09-14T10:34:08.693Z,74.55
2022-09-14T10:35:08.749Z,72.63
2022-09-14T10:36:08.706Z,74.31
2022-09-14T10:37:08.708Z,76.32
2022-09-14T10:38:08.721Z,73.71
2022-09-14T10:39:08.724Z,74.10
2022-09-14T10:40:08.795Z,74.10
2022-09-14T10:41:08.726Z,73.41
2022-09-14T10:42:08.731Z,75.52
2022-09-14T10:43:08.739Z,74.04
2022-09-14T10:44:08.946Z,75.82
2022-09-14T10:45:08.752Z,72.99
2022-09-14T10:46:08.776Z,75.33
2022-09-14T10:47:08.756Z,74.93
2022-09-14T10:48:08.759Z,74.84
2022-09-14T10:49:08.764Z,74.57
2022-09-14T10:50:08.771Z,76.81
2022-09-14T10:51:08.774Z,73.91
2022-09-14T10:52:08.783Z,74.63
2022-09-14T10:53:08.783Z,75.63
2022-09-14T10:54:08.788Z,74.40
2022-09-14T10:55:08.799Z,70.81
2022-09-14T10:56:08.802Z,71.20
2022-09-14T10:57:08.809Z,71.66
2022-09-14T10:58:10.799Z,72.12
2022-09-14T10:59:08.815Z,71.52
2022-09-14T11:00:08.926Z,69.48
2022-09-14T11:01:08.837Z,68.13
2022-09-14T11:02:08.934Z,68.27
2022-09-14T11:03:08.913Z,68.46
2022-09-14T11:04:08.841Z,69.29
2022-09-14T11:05:08.850Z,67.77
2022-09-14T11:06:08.852Z,66.56
2022-09-14T11:07:08.865Z,66.93
2022-09-14T11:08:08.865Z,66.79
2022-09-14T11:09:08.869Z,68.73
2022-09-14T11:10:08.880Z,65.91
2022-09-14T11:11:11.432Z,69.65
2022-09-14T11:12:08.894Z,69.02
2022-09-14T11:13:08.895Z,68.82
2022-09-14T11:14:08.899Z,68.82
2022-09-14T11:15:08.909Z,70.83
2022-09-14T11:16:09.078Z,68.86
2022-09-14T11:17:08.916Z,67.55
2022-09-14T11:18:08.924Z,65.61
2022-09-14T11:19:08.931Z,66.17
2022-09-14T11:20:08.936Z,67.61
2022-09-14T11:21:08.945Z,68.99
2022-09-14T11:22:08.947Z,66.72
2022-09-14T11:23:08.950Z,65.94
2022-09-14T11:24:08.967Z,69.02
2022-09-14T11:25:08.966Z,68.33
2022-09-14T11:26:08.966Z,68.04
2022-09-14T11:27:08.978Z,66.86
2022-09-14T11:28:08.982Z,67.05
2022-09-14T11:29:08.992Z,66.76
2022-09-14T11:30:09.077Z,69.78
2022-09-14T11:31:09.045Z,68.96
2022-09-14T11:32:22.747Z,68.66
2022-09-14T11:33:09.020Z,68.69
2022-09-14T11:34:09.020Z,66.69
2022-09-14T11:35:09.080Z,66.63
2022-09-14T11:36:09.031Z,64.41
2022-09-14T11:37:09.039Z,64.64
2022-09-14T11:38:09.051Z,64.15
2022-09-14T11:39:09.051Z,64.64
2022-09-14T11:40:09.196Z,61.89
2022-09-14T11:41:09.067Z,62.90
2022-09-14T11:42:09.075Z,63.45
2022-09-14T11:43:09.082Z,66.27
2022-09-14T11:44:09.082Z,66.89
2022-09-14T11:45:09.089Z,66.79
2022-09-14T11:46:09.151Z,69.06
2022-09-14T11:47:09.096Z,69.61
2022-09-14T11:48:38.317Z,66.14
2022-09-14T11:49:09.118Z,66.56
2022-09-14T11:50:09.122Z,68.37
2022-09-14T11:51:09.127Z,64.76
2022-09-14T11:52:09.133Z,66.76
2022-09-14T11:53:09.142Z,66.75
2022-09-14T11:54:09.151Z,67.65
2022-09-14T11:55:09.164Z,69.06
2022-09-14T11:56:09.159Z,70.47
2022-09-14T11:57:09.171Z,70.67
2022-09-14T11:58:09.175Z,71.36
2022-09-14T11:59:09.194Z,71.89
2022-09-14T12:00:09.200Z,74.36
2022-09-14T12:01:09.194Z,72.12
2022-09-14T12:02:09.261Z,74.40
2022-09-14T12:03:09.321Z,73.21
2022-09-14T12:04:09.416Z,74.59
2022-09-14T12:05:09.224Z,73.50
2022-09-14T12:06:09.221Z,72.02
2022-09-14T12:07:09.227Z,71.10
2022-09-14T12:08:09.230Z,73.18
2022-09-14T12:09:09.240Z,71.98
2022-09-14T12:10:09.242Z,71.92
2022-09-14T12:11:09.248Z,73.70
2022-09-14T12:12:09.250Z,73.41
2022-09-14T12:13:09.256Z,71.96
2022-09-14T12:14:09.263Z,73.64
2022-09-14T12:15:09.269Z,73.54
2022-09-14T12:16:09.348Z,71.99
2022-09-14T12:17:22.740Z,72.59
2022-09-14T12:18:09.280Z,74.57
2022-09-14T12:19:09.291Z,74.27
2022-09-14T12:20:09.319Z,73.61
2022-09-14T12:21:09.313Z,76.38
2022-09-14T12:22:09.309Z,74.17
2022-09-14T12:23:09.316Z,74.10
2022-09-14T12:24:09.313Z,73.25
2022-09-14T12:25:09.324Z,76.03
2022-09-14T12:26:09.328Z,76.52
2022-09-14T12:27:09.340Z,76.72
2022-09-14T12:28:09.339Z,76.58
2022-09-14T12:29:09.342Z,73.81
2022-09-14T12:30:09.352Z,73.32
2022-09-14T12:31:09.405Z,71.97
2022-09-14T12:32:09.363Z,74.54
2022-09-14T12:33:09.363Z,76.62
2022-09-14T12:34:09.375Z,75.92
2022-09-14T12:35:09.421Z,73.94
2022-09-14T12:36:09.437Z,75.52
2022-09-14T12:37:12.136Z,75.63
2022-09-14T12:38:09.394Z,73.88
2022-09-14T12:39:09.393Z,73.98
2022-09-14T12:40:09.464Z,74.71
2022-09-14T12:41:09.400Z,76.69
2022-09-14T12:42:09.409Z,74.71
2022-09-14T12:43:09.410Z,75.50
2022-09-14T12:44:09.414Z,77.68
2022-09-14T12:45:09.416Z,76.99
2022-09-14T12:46:09.501Z,76.39
2022-09-14T12:47:09.429Z,76.59
2022-09-14T12:48:09.437Z,77.19
2022-09-14T12:49:09.441Z,76.10
2022-09-14T12:50:09.444Z,76.23
2022-09-14T12:51:09.445Z,75.34
2022-09-14T12:52:09.559Z,76.07